MSC Kia Ora — A8JG6 — position and weather

sailwx.info

Track history (hours):
 
Tides and Currents Weather Stations Pressure Air Temp Water Temp Dewpoint Dewpoint Depression Visibility Wind Speed Wind Dir Waves Ship Positions

MSC Kia Ora

Last reported at 2017-Oct-19 12:35 UTC. Time now 2017-Oct-20 12:22 UTC.
Position S 26°31' E 153°46'.

Length 148 m; draft 8.4 m.

Type: Ship (hazmat cat D). MMSI: 636017700.

Date/timePositionNaut miles runAvg speedWind from/ knotsBaromVisibWave heightAir tempDewpointWater temp
2017-Oct-19 12:35S 26°31' E 153°46'3610.8
2017-Oct-19 09:17S 26°48' E 153°11'311.0
2017-Oct-19 09:00S 26°51' E 153°09'613.0
2017-Oct-19 08:31S 26°57' E 153°13'612.5
2017-Oct-19 08:00S 27°03' E 153°16'612.0
2017-Oct-19 07:30S 27°07' E 153°20'612.6
2017-Oct-19 07:01S 27°13' E 153°20'612.8
2017-Oct-19 06:30S 27°17' E 153°14'612.1
2017-Oct-19 06:00S 27°22' E 153°10'0 0.2
2017-Oct-19 05:30S 27°22' E 153°11'0 0.0
2017-Oct-19 05:00S 27°22' E 153°11'0 0.0
2017-Oct-19 04:30S 27°22' E 153°11'0 0.0
2017-Oct-19 04:00S 27°22' E 153°11'0 0.0
2017-Oct-19 03:30S 27°22' E 153°11'0 0.0
2017-Oct-19 03:00S 27°22' E 153°11'0 0.0
2017-Oct-19 02:30S 27°22' E 153°11'0 0.0
2017-Oct-19 02:00S 27°22' E 153°11'0 0.0
2017-Oct-19 01:30S 27°22' E 153°11'0 0.0
2017-Oct-19 01:00S 27°22' E 153°11'0 0.0
2017-Oct-19 00:30S 27°22' E 153°11'0 0.0
2017-Oct-19 00:00S 27°22' E 153°11'0 0.0
2017-Oct-18 23:30S 27°22' E 153°11'0 0.0
2017-Oct-18 23:00S 27°22' E 153°11'0 0.0
2017-Oct-18 22:30S 27°22' E 153°11'0 0.0
2017-Oct-18 22:00S 27°22' E 153°11'0 0.0
2017-Oct-18 21:30S 27°22' E 153°11'0 0.0
2017-Oct-18 21:00S 27°22' E 153°11'0 0.0
2017-Oct-18 20:30S 27°22' E 153°11'0 0.0
2017-Oct-18 20:00S 27°22' E 153°11'0 0.0
2017-Oct-18 19:30S 27°22' E 153°11'0 0.0
2017-Oct-18 19:00S 27°22' E 153°11'0 0.0
2017-Oct-18 18:30S 27°22' E 153°11'0 0.0
2017-Oct-18 18:00S 27°22' E 153°11'0 0.0
2017-Oct-18 17:30S 27°22' E 153°11'0 0.1
2017-Oct-18 17:00S 27°22' E 153°10'0 0.1
2017-Oct-18 16:29S 27°22' E 153°11'0 0.0
2017-Oct-18 15:59S 27°22' E 153°11'0 0.0
2017-Oct-18 15:29S 27°22' E 153°11'0 0.0
2017-Oct-18 14:59S 27°22' E 153°11'0 0.0
2017-Oct-18 13:59S 27°22' E 153°11'0 0.0
2017-Oct-18 13:30S 27°22' E 153°11'1 2.4
2017-Oct-18 13:00S 27°21' E 153°11'612.1
2017-Oct-18 12:30S 27°16' E 153°15'612.1
2017-Oct-18 12:00S 27°12' E 153°20'612.0
2017-Oct-18 11:30S 27°06' E 153°20'611.7
2017-Oct-18 11:00S 27°02' E 153°15'612.6
2017-Oct-18 10:30S 26°56' E 153°12'612.2
2017-Oct-18 10:00S 26°51' E 153°09'8 6.5
2017-Oct-18 08:45S 26°46' E 153°17'313.3
2017-Oct-18 08:30S 26°48' E 153°20'612.0
2017-Oct-18 08:00S 26°51' E 153°26'1112.0
2017-Oct-18 07:03S 26°60' E 153°34'113.7
2017-Oct-18 07:00S 27°00' E 153°34'713.3
2017-Oct-18 06:30S 27°07' E 153°37'713.0
2017-Oct-18 05:57S 27°14' E 153°39'2012.7
2017-Oct-18 04:24S 27°33' E 153°40'512.4
2017-Oct-18 04:00S 27°38' E 153°40'612.3
2017-Oct-18 03:30S 27°44' E 153°41'611.6
2017-Oct-18 03:00S 27°50' E 153°41'611.1
2017-Oct-18 02:30S 27°56' E 153°42'610.9
2017-Oct-18 02:00S 28°01' E 153°42'611.8
2017-Oct-18 01:30S 28°07' E 153°42'612.2
2017-Oct-18 01:00S 28°13' E 153°43'612.1
2017-Oct-18 00:30S 28°19' E 153°43'612.1
2017-Oct-17 23:59S 28°25' E 153°43'25611.5
2017-Oct-17 01:46S 32°34' E 152°32'312.1
2017-Oct-17 01:30S 32°36' E 152°30'612.1
2017-Oct-17 01:00S 32°41' E 152°25'612.2
2017-Oct-17 00:30S 32°46' E 152°20'612.7
2017-Oct-17 00:00S 32°50' E 152°15'612.5
2017-Oct-16 23:30S 32°55' E 152°10'612.4
2017-Oct-16 23:00S 32°59' E 152°05'612.9
2017-Oct-16 22:30S 33°04' E 151°60'713.1
2017-Oct-16 22:00S 33°09' E 151°54'3313.1
2017-Oct-16 19:30S 33°39' E 151°39'713.2
2017-Oct-16 19:00S 33°45' E 151°35'713.1
2017-Oct-16 18:30S 33°50' E 151°30'  
2017-Oct-13 16:43S 38°14' E 149°06'314.9
2017-Oct-13 16:30S 38°16' E 149°03'815.0
2017-Oct-13 15:59S 38°21' E 148°56'915.3
2017-Oct-13 15:23S 38°27' E 148°47'184 4.0
2017-Oct-11 17:33S 37°60' E 144°55'113.0
2017-Oct-11 17:27S 37°59' E 144°55'4 9.7
2017-Oct-11 16:59S 37°54' E 144°55'156 4.5
2017-Oct-10 06:16S 38°44' E 148°04'3914.0
2017-Oct-10 03:29S 38°29' E 148°50'1213.6
2017-Oct-10 02:35S 38°24' E 149°04'314.0
2017-Oct-10 02:23S 38°23' E 149°07'  
Track history (hours):
 
Tides and Currents Weather Stations Pressure Air Temp Water Temp Dewpoint Dewpoint Depression Visibility Wind Speed Wind Dir Waves Ship Positions

MSC Kia Ora

Last reported at 2017-Oct-19 12:35 UTC. Time now 2017-Oct-20 12:22 UTC.
Position S 26°31' E 153°46'.

Length 148 m; draft 8.4 m.

Type: Ship (hazmat cat D). MMSI: 636017700.

Date/timePositionNaut miles runAvg speedWind from/ knotsBaromVisibWave heightAir tempDewpointWater temp
2017-Oct-19 12:35S 26°31' E 153°46'3610.8
2017-Oct-19 09:17S 26°48' E 153°11'311.0
2017-Oct-19 09:00S 26°51' E 153°09'613.0
2017-Oct-19 08:31S 26°57' E 153°13'612.5
2017-Oct-19 08:00S 27°03' E 153°16'612.0
2017-Oct-19 07:30S 27°07' E 153°20'612.6
2017-Oct-19 07:01S 27°13' E 153°20'612.8
2017-Oct-19 06:30S 27°17' E 153°14'612.1
2017-Oct-19 06:00S 27°22' E 153°10'0 0.2
2017-Oct-19 05:30S 27°22' E 153°11'0 0.0
2017-Oct-19 05:00S 27°22' E 153°11'0 0.0
2017-Oct-19 04:30S 27°22' E 153°11'0 0.0
2017-Oct-19 04:00S 27°22' E 153°11'0 0.0
2017-Oct-19 03:30S 27°22' E 153°11'0 0.0
2017-Oct-19 03:00S 27°22' E 153°11'0 0.0
2017-Oct-19 02:30S 27°22' E 153°11'0 0.0
2017-Oct-19 02:00S 27°22' E 153°11'0 0.0
2017-Oct-19 01:30S 27°22' E 153°11'0 0.0
2017-Oct-19 01:00S 27°22' E 153°11'0 0.0
2017-Oct-19 00:30S 27°22' E 153°11'0 0.0
2017-Oct-19 00:00S 27°22' E 153°11'0 0.0
2017-Oct-18 23:30S 27°22' E 153°11'0 0.0
2017-Oct-18 23:00S 27°22' E 153°11'0 0.0
2017-Oct-18 22:30S 27°22' E 153°11'0 0.0
2017-Oct-18 22:00S 27°22' E 153°11'0 0.0
2017-Oct-18 21:30S 27°22' E 153°11'0 0.0
2017-Oct-18 21:00S 27°22' E 153°11'0 0.0
2017-Oct-18 20:30S 27°22' E 153°11'0 0.0
2017-Oct-18 20:00S 27°22' E 153°11'0 0.0
2017-Oct-18 19:30S 27°22' E 153°11'0 0.0
2017-Oct-18 19:00S 27°22' E 153°11'0 0.0
2017-Oct-18 18:30S 27°22' E 153°11'0 0.0
2017-Oct-18 18:00S 27°22' E 153°11'0 0.0
2017-Oct-18 17:30S 27°22' E 153°11'0 0.1
2017-Oct-18 17:00S 27°22' E 153°10'0 0.1
2017-Oct-18 16:29S 27°22' E 153°11'0 0.0
2017-Oct-18 15:59S 27°22' E 153°11'0 0.0
2017-Oct-18 15:29S 27°22' E 153°11'0 0.0
2017-Oct-18 14:59S 27°22' E 153°11'0 0.0
2017-Oct-18 13:59S 27°22' E 153°11'0 0.0
2017-Oct-18 13:30S 27°22' E 153°11'1 2.4
2017-Oct-18 13:00S 27°21' E 153°11'612.1
2017-Oct-18 12:30S 27°16' E 153°15'612.1
2017-Oct-18 12:00S 27°12' E 153°20'612.0
2017-Oct-18 11:30S 27°06' E 153°20'611.7
2017-Oct-18 11:00S 27°02' E 153°15'612.6
2017-Oct-18 10:30S 26°56' E 153°12'612.2
2017-Oct-18 10:00S 26°51' E 153°09'8 6.5
2017-Oct-18 08:45S 26°46' E 153°17'313.3
2017-Oct-18 08:30S 26°48' E 153°20'612.0
2017-Oct-18 08:00S 26°51' E 153°26'1112.0
2017-Oct-18 07:03S 26°60' E 153°34'113.7
2017-Oct-18 07:00S 27°00' E 153°34'713.3
2017-Oct-18 06:30S 27°07' E 153°37'713.0
2017-Oct-18 05:57S 27°14' E 153°39'2012.7
2017-Oct-18 04:24S 27°33' E 153°40'512.4
2017-Oct-18 04:00S 27°38' E 153°40'612.3
2017-Oct-18 03:30S 27°44' E 153°41'611.6
2017-Oct-18 03:00S 27°50' E 153°41'611.1
2017-Oct-18 02:30S 27°56' E 153°42'610.9
2017-Oct-18 02:00S 28°01' E 153°42'611.8
2017-Oct-18 01:30S 28°07' E 153°42'612.2
2017-Oct-18 01:00S 28°13' E 153°43'612.1
2017-Oct-18 00:30S 28°19' E 153°43'612.1
2017-Oct-17 23:59S 28°25' E 153°43'25611.5
2017-Oct-17 01:46S 32°34' E 152°32'312.1
2017-Oct-17 01:30S 32°36' E 152°30'612.1
2017-Oct-17 01:00S 32°41' E 152°25'612.2
2017-Oct-17 00:30S 32°46' E 152°20'612.7
2017-Oct-17 00:00S 32°50' E 152°15'612.5
2017-Oct-16 23:30S 32°55' E 152°10'612.4
2017-Oct-16 23:00S 32°59' E 152°05'612.9
2017-Oct-16 22:30S 33°04' E 151°60'713.1
2017-Oct-16 22:00S 33°09' E 151°54'3313.1
2017-Oct-16 19:30S 33°39' E 151°39'713.2
2017-Oct-16 19:00S 33°45' E 151°35'713.1
2017-Oct-16 18:30S 33°50' E 151°30'  
2017-Oct-13 16:43S 38°14' E 149°06'314.9
2017-Oct-13 16:30S 38°16' E 149°03'815.0
2017-Oct-13 15:59S 38°21' E 148°56'915.3
2017-Oct-13 15:23S 38°27' E 148°47'184 4.0
2017-Oct-11 17:33S 37°60' E 144°55'113.0
2017-Oct-11 17:27S 37°59' E 144°55'4 9.7
2017-Oct-11 16:59S 37°54' E 144°55'156 4.5
2017-Oct-10 06:16S 38°44' E 148°04'3914.0
2017-Oct-10 03:29S 38°29' E 148°50'1213.6
2017-Oct-10 02:35S 38°24' E 149°04'314.0
2017-Oct-10 02:23S 38°23' E 149°07'  

Dump ship's entire track history